createdAt,value
2018-03-14T00:02:23.760Z,74.90
2018-03-14T00:04:51.257Z,74.60
2018-03-14T00:07:18.731Z,74.60
2018-03-14T00:09:46.226Z,74.60
2018-03-14T00:12:13.702Z,74.80
2018-03-14T00:14:41.223Z,74.80
2018-03-14T00:17:09.089Z,75.00
2018-03-14T00:19:36.568Z,75.00
2018-03-14T00:22:04.434Z,75.10
2018-03-14T00:24:32.347Z,74.90
2018-03-14T00:26:59.824Z,74.90
2018-03-14T00:29:27.318Z,74.60
2018-03-14T00:31:55.215Z,74.20
2018-03-14T00:34:22.670Z,74.20
2018-03-14T00:36:50.519Z,74.40
2018-03-14T00:39:17.970Z,74.40
2018-03-14T00:41:45.769Z,74.50
2018-03-14T00:44:13.729Z,74.50
2018-03-14T00:46:41.587Z,74.30
2018-03-14T00:49:09.060Z,74.40
2018-03-14T00:51:36.521Z,74.60
2018-03-14T00:54:04.094Z,74.50
2018-03-14T00:56:31.968Z,74.40
2018-03-14T00:58:59.828Z,74.30
2018-03-14T01:01:27.298Z,74.40
2018-03-14T01:03:55.174Z,74.40
2018-03-14T01:06:23.047Z,74.20
2018-03-14T01:08:50.901Z,74.20
2018-03-14T01:11:18.370Z,74.20
2018-03-14T01:13:45.822Z,74.30
2018-03-14T01:16:13.273Z,74.00
2018-03-14T01:18:40.953Z,73.70
2018-03-14T01:21:08.409Z,73.90
2018-03-14T01:23:35.957Z,74.20
2018-03-14T01:26:03.409Z,74.30
2018-03-14T01:28:30.873Z,74.30
2018-03-14T01:30:58.351Z,74.10
2018-03-14T01:33:32.666Z,73.90
2018-03-14T01:36:00.133Z,73.90
2018-03-14T01:38:27.575Z,73.90
2018-03-14T01:40:55.056Z,73.50
2018-03-14T01:43:22.502Z,73.80
2018-03-14T01:45:49.980Z,73.80
2018-03-14T01:48:17.432Z,73.70
2018-03-14T01:50:44.889Z,73.50
2018-03-14T01:53:24.256Z,73.50
2018-03-14T01:55:51.707Z,73.50
2018-03-14T01:58:19.154Z,73.50
2018-03-14T02:00:46.611Z,73.60
2018-03-14T02:03:14.081Z,73.70
2018-03-14T02:05:41.526Z,73.80
2018-03-14T02:08:09.011Z,73.80
2018-03-14T02:10:36.470Z,73.90
2018-03-14T02:13:04.036Z,73.80
2018-03-14T02:15:31.497Z,73.60
2018-03-14T02:17:59.054Z,73.70
2018-03-14T02:20:26.509Z,73.30
2018-03-14T02:22:53.977Z,72.90
2018-03-14T02:25:21.433Z,73.30
2018-03-14T02:27:48.907Z,73.60
2018-03-14T02:30:16.372Z,73.50
2018-03-14T02:32:43.818Z,73.50
2018-03-14T02:35:11.288Z,73.40
2018-03-14T02:37:39.692Z,73.10
2018-03-14T02:40:07.145Z,73.10
2018-03-14T02:42:36.130Z,73.30
2018-03-14T02:45:03.693Z,73.40
2018-03-14T02:47:31.259Z,73.40
2018-03-14T02:49:58.720Z,73.40
2018-03-14T02:52:26.190Z,73.60
2018-03-14T02:54:53.746Z,73.50
2018-03-14T02:57:21.198Z,73.40
2018-03-14T02:59:48.646Z,73.20
2018-03-14T03:02:16.116Z,73.30
2018-03-14T03:04:43.589Z,73.30
2018-03-14T03:07:11.053Z,73.30
2018-03-14T03:09:38.531Z,73.40
2018-03-14T03:12:06.098Z,73.40
2018-03-14T03:14:34.061Z,73.40
2018-03-14T03:17:01.526Z,73.50
2018-03-14T03:19:28.977Z,73.60
2018-03-14T03:21:56.440Z,73.90
2018-03-14T03:24:23.893Z,73.70
2018-03-14T03:26:51.361Z,73.60
2018-03-14T03:29:18.833Z,73.70
2018-03-14T03:31:46.301Z,73.90
2018-03-14T03:34:18.790Z,73.50
2018-03-14T03:36:46.238Z,73.80
2018-03-14T03:39:13.715Z,73.60
2018-03-14T03:41:41.641Z,73.80
2018-03-14T03:44:09.082Z,73.80
2018-03-14T03:46:36.548Z,73.70
2018-03-14T03:49:04.014Z,73.70
2018-03-14T03:51:31.457Z,73.30
2018-03-14T03:53:58.897Z,73.40
2018-03-14T03:56:26.738Z,73.50
2018-03-14T03:58:54.209Z,73.50
2018-03-14T04:01:21.667Z,73.60
2018-03-14T04:03:49.117Z,73.50
2018-03-14T04:06:16.570Z,73.40
2018-03-14T04:08:44.029Z,73.40
2018-03-14T04:11:11.517Z,73.50
2018-03-14T04:13:39.286Z,73.30
2018-03-14T04:16:06.742Z,73.50
2018-03-14T04:18:34.311Z,73.70
2018-03-14T04:21:01.765Z,73.80
2018-03-14T04:23:29.237Z,74.00
2018-03-14T04:25:56.797Z,74.10
2018-03-14T04:28:24.374Z,74.20
2018-03-14T04:30:51.831Z,74.10
2018-03-14T04:33:19.391Z,73.70
2018-03-14T04:35:46.950Z,73.90
2018-03-14T04:38:14.393Z,73.90
2018-03-14T04:40:41.840Z,73.90
2018-03-14T04:43:09.300Z,73.90
2018-03-14T04:45:36.760Z,74.00
2018-03-14T04:48:04.214Z,73.90
2018-03-14T04:50:31.661Z,73.80
2018-03-14T04:52:59.510Z,73.60
2018-03-14T04:55:27.063Z,73.60
2018-03-14T04:57:54.537Z,73.80
2018-03-14T05:00:22.070Z,74.10
2018-03-14T05:02:49.540Z,73.80
2018-03-14T05:05:17.001Z,73.90
2018-03-14T05:07:44.452Z,73.90
2018-03-14T05:10:11.913Z,73.90
2018-03-14T05:12:39.393Z,73.80
2018-03-14T05:15:06.842Z,73.90
2018-03-14T05:17:35.191Z,73.90
2018-03-14T05:20:05.703Z,73.60
2018-03-14T05:22:33.643Z,73.90
2018-03-14T05:25:01.104Z,73.90
2018-03-14T05:27:28.565Z,73.90
2018-03-14T05:29:56.022Z,73.60
2018-03-14T05:32:23.590Z,73.40
2018-03-14T05:34:51.040Z,73.50
2018-03-14T05:37:18.490Z,73.20
2018-03-14T05:39:45.947Z,73.30
2018-03-14T05:42:13.405Z,73.40
2018-03-14T05:44:40.863Z,73.40
2018-03-14T05:47:08.316Z,73.20
2018-03-14T05:49:35.799Z,73.30
2018-03-14T05:52:03.279Z,73.40
2018-03-14T05:54:30.850Z,73.50
2018-03-14T05:56:58.313Z,73.50
2018-03-14T05:59:26.224Z,73.50
2018-03-14T06:01:54.070Z,73.50
2018-03-14T06:04:21.606Z,73.50
2018-03-14T06:06:49.074Z,73.50
2018-03-14T06:09:16.524Z,73.80
2018-03-14T06:11:43.999Z,73.70
2018-03-14T06:14:11.465Z,73.70
2018-03-14T06:16:38.910Z,73.70
2018-03-14T06:19:06.384Z,73.80
2018-03-14T06:21:33.830Z,73.60
2018-03-14T06:24:01.304Z,73.70
2018-03-14T06:26:28.865Z,73.60
2018-03-14T06:28:56.325Z,73.70
2018-03-14T06:31:23.795Z,73.80
2018-03-14T06:33:51.244Z,73.70
2018-03-14T06:36:18.710Z,73.70
2018-03-14T06:38:46.161Z,74.00
2018-03-14T06:41:13.630Z,73.70
2018-03-14T06:43:41.113Z,73.60
2018-03-14T06:46:08.665Z,73.40
2018-03-14T06:48:36.131Z,73.50
2018-03-14T06:51:03.647Z,73.30
2018-03-14T06:53:31.151Z,73.30
2018-03-14T06:55:58.610Z,73.20
2018-03-14T06:58:38.025Z,73.10
2018-03-14T07:01:17.517Z,72.50
2018-03-14T07:04:10.193Z,72.70
2018-03-14T07:06:38.926Z,72.70
2018-03-14T07:09:06.482Z,72.90
2018-03-14T07:11:38.202Z,73.10
2018-03-14T07:14:06.107Z,73.10
2018-03-14T07:16:33.581Z,73.10
2018-03-14T07:19:01.038Z,73.30
2018-03-14T07:21:28.614Z,73.60
2018-03-14T07:23:56.167Z,73.80
2018-03-14T07:26:23.785Z,73.80
2018-03-14T07:28:51.233Z,73.50
2018-03-14T07:31:18.775Z,73.30
2018-03-14T07:33:46.230Z,73.20
2018-03-14T07:36:13.697Z,73.30
2018-03-14T07:38:41.152Z,73.50
2018-03-14T07:41:09.021Z,73.30
2018-03-14T07:43:36.567Z,73.30
2018-03-14T07:46:04.009Z,73.30
2018-03-14T07:48:31.506Z,72.80
2018-03-14T07:50:58.957Z,72.50
2018-03-14T07:53:26.522Z,72.40
2018-03-14T07:55:56.094Z,72.40
2018-03-14T07:58:26.096Z,72.40
2018-03-14T08:00:53.973Z,72.10
2018-03-14T08:03:21.492Z,72.10
2018-03-14T08:05:48.994Z,71.80
2018-03-14T08:08:16.446Z,71.70
2018-03-14T08:10:44.351Z,71.60
2018-03-14T08:13:11.806Z,71.60
2018-03-14T08:15:39.538Z,71.40
2018-03-14T08:18:07.398Z,71.00
2018-03-14T08:20:34.844Z,71.00
2018-03-14T08:23:02.331Z,70.00
2018-03-14T08:25:30.307Z,69.60
2018-03-14T08:27:57.764Z,69.70
2018-03-14T08:30:25.621Z,69.50
2018-03-14T08:32:53.177Z,69.50
2018-03-14T08:35:20.651Z,69.00
2018-03-14T08:37:48.113Z,68.90
2018-03-14T08:40:15.664Z,68.70
2018-03-14T08:42:43.137Z,68.10
2018-03-14T08:45:10.603Z,68.20
2018-03-14T08:47:43.996Z,67.40
2018-03-14T08:50:11.475Z,67.20
2018-03-14T08:52:39.016Z,67.50
2018-03-14T08:55:06.476Z,65.80
2018-03-14T08:57:33.958Z,66.30
2018-03-14T09:00:01.506Z,66.10
2018-03-14T09:02:28.986Z,66.10
2018-03-14T09:04:56.846Z,66.10
2018-03-14T09:07:25.052Z,66.00
2018-03-14T09:09:52.490Z,65.90
2018-03-14T09:12:19.959Z,66.00
2018-03-14T09:14:47.439Z,66.30
2018-03-14T09:17:15.306Z,65.80
2018-03-14T09:19:43.163Z,65.80
2018-03-14T09:22:10.630Z,65.80
2018-03-14T09:24:38.494Z,64.70
2018-03-14T09:27:06.048Z,64.70
2018-03-14T09:29:33.638Z,64.70
2018-03-14T09:32:01.589Z,63.60
2018-03-14T09:34:29.050Z,63.60
2018-03-14T09:36:56.511Z,63.50
2018-03-14T09:39:32.157Z,62.80
2018-03-14T09:41:59.620Z,62.60
2018-03-14T09:44:27.171Z,62.20
2018-03-14T09:46:54.636Z,61.80
2018-03-14T09:49:22.122Z,61.90
2018-03-14T09:51:49.588Z,60.30
2018-03-14T09:54:17.532Z,60.40
2018-03-14T09:56:45.010Z,60.40
2018-03-14T09:59:12.566Z,59.90
2018-03-14T10:01:40.034Z,60.30
2018-03-14T10:04:07.517Z,59.50
2018-03-14T10:06:35.460Z,59.40
2018-03-14T10:09:02.934Z,59.40
2018-03-14T10:11:30.402Z,59.90
2018-03-14T10:13:57.896Z,59.40
2018-03-14T10:16:25.388Z,58.90
2018-03-14T10:18:52.886Z,58.30
2018-03-14T10:21:20.778Z,58.80
2018-03-14T10:23:48.833Z,59.10
2018-03-14T10:26:16.306Z,59.10
2018-03-14T10:28:44.249Z,58.30
2018-03-14T10:31:11.715Z,58.30
2018-03-14T10:33:39.189Z,57.20
2018-03-14T10:36:06.693Z,57.60
2018-03-14T10:38:34.540Z,56.30
2018-03-14T10:41:02.390Z,54.50
2018-03-14T10:43:29.866Z,54.50
2018-03-14T10:45:59.698Z,54.10
2018-03-14T10:48:27.234Z,54.10
2018-03-14T10:50:54.710Z,54.40
2018-03-14T10:53:22.259Z,54.90
2018-03-14T10:55:49.839Z,55.00
2018-03-14T10:58:17.701Z,56.30
2018-03-14T11:00:50.833Z,56.30
2018-03-14T11:03:18.340Z,55.30
2018-03-14T11:05:46.781Z,55.80
2018-03-14T11:08:14.260Z,56.10
2018-03-14T11:10:41.752Z,56.30
2018-03-14T11:13:09.250Z,56.20
2018-03-14T11:15:37.183Z,56.30
2018-03-14T11:18:04.662Z,56.30
2018-03-14T11:20:32.105Z,57.10
2018-03-14T11:22:59.583Z,56.70
2018-03-14T11:25:27.071Z,56.80
2018-03-14T11:27:54.544Z,57.40
2018-03-14T11:30:22.398Z,57.40
2018-03-14T11:32:50.337Z,57.50
2018-03-14T11:35:17.896Z,57.50
2018-03-14T11:37:51.248Z,56.60
2018-03-14T11:40:22.465Z,56.80
2018-03-14T11:42:50.010Z,57.10
2018-03-14T11:45:17.574Z,57.60
2018-03-14T11:47:45.150Z,57.90
2018-03-14T11:50:13.637Z,57.20
2018-03-14T11:52:41.103Z,56.90
2018-03-14T11:55:08.654Z,56.60
2018-03-14T11:57:36.113Z,56.00
2018-03-14T12:00:09.462Z,56.60
2018-03-14T12:02:36.927Z,57.00
2018-03-14T12:05:04.403Z,55.80
2018-03-14T12:07:31.882Z,56.00
2018-03-14T12:09:59.356Z,56.10
2018-03-14T12:12:26.835Z,54.90
2018-03-14T12:14:54.383Z,55.60
2018-03-14T12:17:21.979Z,54.30
2018-03-14T12:19:49.860Z,53.90
2018-03-14T12:22:23.429Z,54.10
2018-03-14T12:24:50.906Z,54.10
2018-03-14T12:27:19.986Z,53.50
2018-03-14T12:29:47.451Z,52.60
2018-03-14T12:32:14.925Z,53.50
2018-03-14T12:34:42.397Z,53.30
2018-03-14T12:37:09.832Z,52.70
2018-03-14T12:39:37.310Z,52.50
2018-03-14T12:42:05.169Z,52.90
2018-03-14T12:44:32.943Z,52.90
2018-03-14T12:47:00.432Z,53.10
2018-03-14T12:49:51.757Z,54.10
2018-03-14T12:52:19.220Z,53.80
2018-03-14T12:54:46.687Z,53.90
2018-03-14T12:57:14.195Z,52.70
2018-03-14T12:59:41.662Z,53.80
2018-03-14T13:02:09.221Z,54.20
2018-03-14T13:04:38.669Z,54.00
2018-03-14T13:07:06.136Z,53.30
2018-03-14T13:09:33.612Z,52.90
2018-03-14T13:12:01.081Z,53.70
2018-03-14T13:14:28.536Z,52.80
2018-03-14T13:16:56.002Z,52.80
2018-03-14T13:19:23.474Z,53.80
2018-03-14T13:21:50.945Z,52.90
2018-03-14T13:24:18.419Z,53.30
2018-03-14T13:26:45.921Z,53.40
2018-03-14T13:29:14.009Z,53.70
2018-03-14T13:31:41.829Z,53.70
2018-03-14T13:34:09.311Z,53.90
2018-03-14T13:36:37.172Z,53.90
2018-03-14T13:39:17.214Z,53.70
2018-03-14T13:41:44.679Z,53.70
2018-03-14T13:44:12.236Z,53.70
2018-03-14T13:46:39.802Z,53.60
2018-03-14T13:49:07.277Z,54.30
2018-03-14T13:51:34.824Z,54.20
2018-03-14T13:54:02.299Z,54.00
2018-03-14T13:56:29.749Z,53.60
2018-03-14T13:58:57.240Z,53.70
2018-03-14T14:01:24.691Z,53.40
2018-03-14T14:03:52.760Z,52.60
2018-03-14T14:06:21.408Z,52.60
2018-03-14T14:08:48.886Z,52.30
2018-03-14T14:11:33.330Z,51.70
2018-03-14T14:14:00.790Z,52.40
2018-03-14T14:16:28.245Z,52.50
2018-03-14T14:18:55.705Z,52.30
2018-03-14T14:21:23.183Z,51.80
2018-03-14T14:23:50.748Z,51.20
2018-03-14T14:26:18.206Z,50.90
2018-03-14T14:28:45.663Z,50.00
2018-03-14T14:31:13.133Z,50.10
2018-03-14T14:33:40.705Z,49.80
2018-03-14T14:36:08.162Z,49.70
2018-03-14T14:38:41.494Z,49.20
2018-03-14T14:41:09.134Z,47.90
2018-03-14T14:43:36.598Z,48.10
2018-03-14T14:46:04.046Z,47.90
2018-03-14T14:48:31.682Z,47.40
2018-03-14T14:50:59.139Z,47.00
2018-03-14T14:53:33.432Z,46.50
2018-03-14T14:56:00.902Z,46.40
2018-03-14T14:58:28.749Z,46.80
2018-03-14T15:00:56.205Z,46.80
2018-03-14T15:03:23.717Z,46.10
2018-03-14T15:05:51.294Z,45.60
2018-03-14T15:08:18.750Z,44.80
2018-03-14T15:10:46.200Z,45.50
2018-03-14T15:13:13.654Z,45.40
2018-03-14T15:15:41.115Z,44.70
2018-03-14T15:18:08.973Z,45.20
2018-03-14T15:20:36.921Z,44.60
2018-03-14T15:23:04.383Z,44.60
2018-03-14T15:25:31.897Z,44.70
2018-03-14T15:27:59.381Z,44.90
2018-03-14T15:30:26.831Z,45.20
2018-03-14T15:32:54.295Z,45.80
2018-03-14T15:35:21.753Z,45.40
2018-03-14T15:37:49.254Z,45.60
2018-03-14T15:40:16.717Z,46.10
2018-03-14T15:42:44.178Z,46.00
2018-03-14T15:45:11.635Z,46.10
2018-03-14T15:47:39.103Z,45.80
2018-03-14T15:50:06.573Z,45.30
2018-03-14T15:52:34.029Z,45.10
2018-03-14T15:55:01.586Z,45.20
2018-03-14T15:57:31.017Z,45.30
2018-03-14T15:59:58.479Z,45.40
2018-03-14T16:02:25.953Z,45.40
2018-03-14T16:04:53.796Z,45.30
2018-03-14T16:07:21.522Z,45.30
2018-03-14T16:09:49.898Z,45.30
2018-03-14T16:12:17.365Z,45.80
2018-03-14T16:14:44.859Z,46.30
2018-03-14T16:17:12.318Z,46.70
2018-03-14T16:19:39.933Z,47.00
2018-03-14T16:22:07.875Z,47.70
2018-03-14T16:24:35.430Z,47.70
2018-03-14T16:27:02.991Z,48.20
2018-03-14T16:29:30.487Z,48.20
2018-03-14T16:31:57.949Z,48.50
2018-03-14T16:34:25.801Z,49.60
2018-03-14T16:36:53.274Z,49.60
2018-03-14T16:39:20.775Z,49.90
2018-03-14T16:41:48.707Z,49.90
2018-03-14T16:44:16.173Z,49.90
2018-03-14T16:46:44.075Z,50.20
2018-03-14T16:49:11.608Z,50.20
2018-03-14T16:51:39.198Z,50.40
2018-03-14T16:54:06.674Z,50.80
2018-03-14T16:56:34.170Z,51.10
2018-03-14T16:59:01.628Z,51.30
2018-03-14T17:01:29.088Z,51.40
2018-03-14T17:03:56.695Z,51.60
2018-03-14T17:06:24.572Z,51.30
2018-03-14T17:08:52.531Z,51.20
2018-03-14T17:11:20.031Z,51.20
2018-03-14T17:13:47.493Z,51.20
2018-03-14T17:16:14.990Z,51.40
2018-03-14T17:18:43.389Z,51.80
2018-03-14T17:21:10.851Z,52.00
2018-03-14T17:23:38.337Z,52.20
2018-03-14T17:26:06.186Z,53.00
2018-03-14T17:28:33.649Z,53.00
2018-03-14T17:31:01.141Z,53.20
2018-03-14T17:33:28.992Z,53.80
2018-03-14T17:35:56.559Z,53.80
2018-03-14T17:38:24.451Z,53.90
2018-03-14T17:40:51.940Z,53.90
2018-03-14T17:43:19.474Z,54.40
2018-03-14T17:45:46.950Z,54.70
2018-03-14T17:48:14.444Z,55.10
2018-03-14T17:50:41.922Z,55.20
2018-03-14T17:53:09.397Z,55.40
2018-03-14T17:55:36.872Z,55.60
2018-03-14T17:58:04.777Z,56.30
2018-03-14T18:00:32.261Z,56.30
2018-03-14T18:03:00.148Z,56.60
2018-03-14T18:05:39.744Z,56.80
2018-03-14T18:08:08.090Z,57.00
2018-03-14T18:10:35.654Z,57.00
2018-03-14T18:13:03.210Z,57.20
2018-03-14T18:15:30.689Z,57.30
2018-03-14T18:17:58.557Z,57.40
2018-03-14T18:20:26.451Z,57.00
2018-03-14T18:23:04.825Z,57.00
2018-03-14T18:25:32.304Z,57.50
2018-03-14T18:27:59.868Z,57.60
2018-03-14T18:30:27.414Z,57.60
2018-03-14T18:32:54.883Z,57.70
2018-03-14T18:35:22.355Z,58.10
2018-03-14T18:37:50.227Z,58.20
2018-03-14T18:40:18.207Z,58.10
2018-03-14T18:42:46.102Z,58.60
2018-03-14T18:45:13.612Z,58.60
2018-03-14T18:47:41.069Z,58.30
2018-03-14T18:50:08.659Z,58.40
2018-03-14T18:52:36.124Z,58.60
2018-03-14T18:55:06.473Z,58.80
2018-03-14T18:57:33.967Z,58.80
2018-03-14T19:00:01.450Z,58.90
2018-03-14T19:02:29.023Z,59.20
2018-03-14T19:04:56.526Z,59.20
2018-03-14T19:07:24.015Z,59.50
2018-03-14T19:09:51.461Z,59.00
2018-03-14T19:12:18.944Z,59.50
2018-03-14T19:14:46.457Z,59.20
2018-03-14T19:17:14.367Z,59.60
2018-03-14T19:19:41.854Z,59.60
2018-03-14T19:22:09.330Z,59.80
2018-03-14T19:24:36.815Z,59.60
2018-03-14T19:27:04.354Z,59.70
2018-03-14T19:29:31.825Z,59.90
2018-03-14T19:31:59.377Z,59.60
2018-03-14T19:34:26.853Z,60.10
2018-03-14T19:36:54.420Z,60.10
2018-03-14T19:39:21.988Z,60.30
2018-03-14T19:41:49.886Z,60.30
2018-03-14T19:44:17.482Z,60.30
2018-03-14T19:46:45.942Z,60.50
2018-03-14T19:49:13.425Z,60.50
2018-03-14T19:51:40.924Z,60.80
2018-03-14T19:54:08.548Z,60.70
2018-03-14T19:56:36.025Z,60.70
2018-03-14T19:59:03.492Z,60.70
2018-03-14T20:01:38.893Z,60.90
2018-03-14T20:04:06.417Z,61.10
2018-03-14T20:06:34.802Z,61.00
2018-03-14T20:09:02.905Z,61.20
2018-03-14T20:11:30.476Z,61.30
2018-03-14T20:13:58.341Z,61.30
2018-03-14T20:16:31.796Z,61.30
2018-03-14T20:18:59.264Z,61.40
2018-03-14T20:21:26.741Z,61.30
2018-03-14T20:23:54.208Z,61.60
2018-03-14T20:26:21.706Z,61.70
2018-03-14T20:28:49.223Z,61.70
2018-03-14T20:31:17.056Z,61.90
2018-03-14T20:33:44.528Z,61.80
2018-03-14T20:36:12.028Z,62.00
2018-03-14T20:38:39.501Z,62.30
2018-03-14T20:41:07.410Z,62.40
2018-03-14T20:43:34.886Z,62.40
2018-03-14T20:46:02.386Z,62.60
2018-03-14T20:48:29.852Z,62.60
2018-03-14T20:50:57.767Z,62.70
2018-03-14T20:53:25.523Z,62.70
2018-03-14T20:55:53.048Z,62.90
2018-03-14T20:58:20.560Z,63.00
2018-03-14T21:00:48.070Z,63.10
2018-03-14T21:03:15.634Z,63.40
2018-03-14T21:05:47.119Z,63.50
2018-03-14T21:08:14.577Z,63.60
2018-03-14T21:10:42.527Z,64.00
2018-03-14T21:13:10.017Z,64.00
2018-03-14T21:15:37.871Z,64.50
2018-03-14T21:18:05.338Z,64.50
2018-03-14T21:20:33.188Z,64.50
2018-03-14T21:23:00.673Z,64.50
2018-03-14T21:25:37.729Z,64.80
2018-03-14T21:28:05.223Z,64.70
2018-03-14T21:30:33.171Z,64.90
2018-03-14T21:33:00.614Z,65.00
2018-03-14T21:35:28.125Z,64.90
2018-03-14T21:37:55.991Z,65.30
2018-03-14T21:40:23.846Z,65.60
2018-03-14T21:42:51.395Z,65.60
2018-03-14T21:45:18.985Z,65.80
2018-03-14T21:47:46.399Z,65.90
2018-03-14T21:50:13.949Z,66.00
2018-03-14T21:52:41.455Z,66.00
2018-03-14T21:55:08.965Z,66.10
2018-03-14T21:57:43.265Z,66.30
2018-03-14T22:00:11.217Z,66.70
2018-03-14T22:02:40.221Z,66.70
2018-03-14T22:05:08.161Z,66.70
2018-03-14T22:07:35.650Z,66.70
2018-03-14T22:10:03.523Z,66.80
2018-03-14T22:12:31.408Z,67.10
2018-03-14T22:15:00.222Z,67.00
2018-03-14T22:17:27.734Z,67.00
2018-03-14T22:19:55.217Z,67.00
2018-03-14T22:22:23.117Z,67.10
2018-03-14T22:24:50.618Z,67.10
2018-03-14T22:27:18.147Z,67.20
2018-03-14T22:29:45.668Z,67.20
2018-03-14T22:32:13.215Z,67.20
2018-03-14T22:34:41.589Z,67.30
2018-03-14T22:37:09.171Z,67.50
2018-03-14T22:39:36.661Z,67.50
2018-03-14T22:42:04.238Z,67.50
2018-03-14T22:44:31.737Z,67.60
2018-03-14T22:46:59.416Z,67.70
2018-03-14T22:49:27.215Z,67.60
2018-03-14T22:51:55.143Z,67.90
2018-03-14T22:54:22.633Z,67.80
2018-03-14T22:56:50.211Z,68.00
2018-03-14T22:59:18.204Z,68.10
2018-03-14T23:01:45.763Z,68.10
2018-03-14T23:04:13.303Z,68.20
2018-03-14T23:06:40.859Z,68.40
2018-03-14T23:09:08.338Z,68.50
2018-03-14T23:11:37.115Z,68.80
2018-03-14T23:14:04.615Z,68.80
2018-03-14T23:16:32.158Z,69.00
2018-03-14T23:19:00.047Z,69.20
2018-03-14T23:21:32.613Z,69.20
2018-03-14T23:24:00.565Z,69.00
2018-03-14T23:26:28.057Z,69.10
2018-03-14T23:28:55.947Z,69.20
2018-03-14T23:31:23.455Z,69.20
2018-03-14T23:33:50.934Z,69.20
2018-03-14T23:36:18.825Z,69.00
2018-03-14T23:38:46.358Z,69.00
2018-03-14T23:41:13.835Z,68.90
2018-03-14T23:43:41.723Z,69.00
2018-03-14T23:46:09.233Z,69.00
2018-03-14T23:48:36.700Z,69.00
2018-03-14T23:51:04.169Z,68.90
2018-03-14T23:53:31.634Z,68.90
2018-03-14T23:55:59.237Z,68.90
2018-03-14T23:58:27.102Z,68.80
